createdAt,value
2023-03-17T00:00:26.682Z,10.80
2023-03-17T00:02:54.612Z,11.73
2023-03-17T00:05:24.300Z,11.13
2023-03-17T00:07:53.010Z,11.60
2023-03-17T00:10:22.653Z,11.77
2023-03-17T00:12:51.389Z,11.43
2023-03-17T00:15:20.487Z,11.75
2023-03-17T00:17:50.109Z,11.57
2023-03-17T00:20:23.975Z,11.27
2023-03-17T00:22:51.879Z,11.57
2023-03-17T00:25:24.836Z,11.27
2023-03-17T00:27:53.371Z,12.55
2023-03-17T00:30:22.614Z,12.02
2023-03-17T00:32:53.799Z,11.60
2023-03-17T00:35:23.868Z,11.75
2023-03-17T00:37:53.572Z,11.60
2023-03-17T00:40:23.161Z,12.00
2023-03-17T00:42:52.199Z,12.68
2023-03-17T00:45:21.280Z,12.18
2023-03-17T00:47:49.958Z,11.90
2023-03-17T00:50:22.096Z,12.10
2023-03-17T00:52:50.463Z,11.48
2023-03-17T00:55:18.460Z,12.27
2023-03-17T00:57:46.458Z,11.68
2023-03-17T01:00:22.945Z,11.98
2023-03-17T01:02:51.333Z,12.57
2023-03-17T01:05:20.980Z,11.93
2023-03-17T01:07:52.881Z,12.07
2023-03-17T01:10:22.507Z,12.35
2023-03-17T01:12:51.633Z,12.23
2023-03-17T01:15:19.858Z,12.55
2023-03-17T01:17:47.801Z,12.13
2023-03-17T01:20:17.733Z,11.95
2023-03-17T01:22:46.947Z,12.65
2023-03-17T01:25:14.906Z,12.57
2023-03-17T01:27:42.897Z,12.85
2023-03-17T01:30:22.435Z,12.68
2023-03-17T01:32:51.035Z,12.35
2023-03-17T01:35:19.612Z,11.70
2023-03-17T01:37:48.883Z,12.52
2023-03-17T01:40:19.085Z,11.80
2023-03-17T01:42:54.178Z,12.27
2023-03-17T01:45:59.781Z,12.07
2023-03-17T01:48:29.024Z,12.73
2023-03-17T01:50:56.918Z,12.55
2023-03-17T01:53:26.141Z,12.40
2023-03-17T01:55:54.781Z,13.07
2023-03-17T01:58:24.126Z,12.63
2023-03-17T02:00:52.125Z,12.48
2023-03-17T02:03:20.063Z,12.63
2023-03-17T02:05:48.537Z,12.10
2023-03-17T02:08:16.541Z,12.25
2023-03-17T02:10:46.294Z,12.20
2023-03-17T02:13:14.414Z,12.27
2023-03-17T02:15:42.981Z,11.60
2023-03-17T02:18:11.552Z,12.88
2023-03-17T02:21:21.878Z,12.32
2023-03-17T02:23:51.300Z,11.93
2023-03-17T02:26:19.214Z,11.93
2023-03-17T02:28:47.151Z,11.13
2023-03-17T02:31:15.567Z,12.10
2023-03-17T02:33:44.923Z,11.77
2023-03-17T02:36:12.825Z,11.50
2023-03-17T02:38:41.190Z,11.95
2023-03-17T02:41:10.606Z,12.27
2023-03-17T02:43:41.315Z,11.80
2023-03-17T02:46:09.303Z,11.98
2023-03-17T02:48:37.999Z,11.35
2023-03-17T02:51:06.120Z,11.27
2023-03-17T02:53:34.022Z,12.00
2023-03-17T02:56:02.126Z,11.57
2023-03-17T02:58:31.419Z,11.95
2023-03-17T03:00:59.339Z,11.55
2023-03-17T03:03:27.593Z,11.43
2023-03-17T03:05:55.442Z,11.90
2023-03-17T03:08:23.340Z,11.77
2023-03-17T03:10:51.223Z,12.23
2023-03-17T03:13:19.140Z,11.40
2023-03-17T03:15:48.613Z,12.27
2023-03-17T03:18:16.543Z,11.52
2023-03-17T03:20:45.005Z,11.65
2023-03-17T03:23:12.903Z,12.00
2023-03-17T03:25:40.846Z,11.13
2023-03-17T03:28:09.072Z,11.88
2023-03-17T03:30:37.407Z,11.77
2023-03-17T03:33:06.857Z,12.30
2023-03-17T03:35:35.385Z,12.15
2023-03-17T03:38:03.399Z,12.00
2023-03-17T03:40:31.788Z,11.48
2023-03-17T03:43:00.475Z,11.30
2023-03-17T03:45:29.229Z,11.98
2023-03-17T03:47:57.134Z,11.77
2023-03-17T03:50:26.354Z,12.40
2023-03-17T03:52:54.212Z,11.38
2023-03-17T03:55:22.120Z,11.02
2023-03-17T03:57:49.982Z,11.60
2023-03-17T04:00:18.922Z,11.27
2023-03-17T04:02:47.066Z,11.77
2023-03-17T04:05:15.503Z,11.32
2023-03-17T04:07:44.874Z,11.13
2023-03-17T04:10:13.007Z,11.57
2023-03-17T04:12:41.135Z,11.40
2023-03-17T04:15:10.613Z,11.48
2023-03-17T04:17:38.557Z,11.35
2023-03-17T04:20:07.603Z,10.65
2023-03-17T04:22:35.466Z,10.90
2023-03-17T04:25:05.547Z,11.02
2023-03-17T04:27:33.414Z,11.15
2023-03-17T04:30:01.557Z,11.73
2023-03-17T04:32:29.518Z,11.50
2023-03-17T04:34:57.878Z,11.15
2023-03-17T04:37:25.863Z,11.30
2023-03-17T04:39:55.183Z,10.57
2023-03-17T04:42:24.458Z,10.85
2023-03-17T04:44:52.325Z,11.05
2023-03-17T04:47:20.194Z,10.73
2023-03-17T04:49:48.071Z,11.23
2023-03-17T04:52:15.986Z,10.68
2023-03-17T04:54:43.983Z,11.00
2023-03-17T04:57:12.235Z,11.57
2023-03-17T04:59:41.475Z,10.32
2023-03-17T05:02:09.384Z,10.75
2023-03-17T05:04:37.638Z,10.55
2023-03-17T05:07:05.679Z,10.65
2023-03-17T05:09:33.567Z,10.50
2023-03-17T05:12:01.660Z,10.75
2023-03-17T05:14:29.673Z,11.40
2023-03-17T05:16:58.925Z,10.52
2023-03-17T05:19:26.925Z,9.77
2023-03-17T05:21:54.848Z,10.43
2023-03-17T05:24:22.717Z,10.20
2023-03-17T05:26:50.667Z,10.23
2023-03-17T05:29:18.535Z,10.75
2023-03-17T05:31:46.396Z,10.82
2023-03-17T05:34:16.001Z,10.23
2023-03-17T05:36:44.629Z,10.52
2023-03-17T05:39:14.493Z,9.85
2023-03-17T05:41:42.640Z,10.55
2023-03-17T05:44:10.615Z,10.43
2023-03-17T05:46:38.475Z,10.40
2023-03-17T05:49:06.380Z,10.05
2023-03-17T05:51:37.027Z,10.07
2023-03-17T05:54:05.105Z,9.90
2023-03-17T05:56:33.699Z,10.00
2023-03-17T05:59:02.344Z,10.05
2023-03-17T06:01:30.920Z,10.52
2023-03-17T06:04:00.910Z,10.07
2023-03-17T06:06:28.878Z,10.02
2023-03-17T06:08:58.136Z,10.80
2023-03-17T06:11:26.689Z,10.10
2023-03-17T06:13:54.662Z,10.02
2023-03-17T06:16:22.891Z,9.95
2023-03-17T06:18:50.769Z,9.70
2023-03-17T06:21:18.656Z,9.90
2023-03-17T06:23:46.571Z,10.18
2023-03-17T06:26:15.900Z,9.85
2023-03-17T06:28:43.766Z,9.98
2023-03-17T06:31:12.021Z,10.60
2023-03-17T06:33:39.917Z,9.93
2023-03-17T06:36:08.833Z,13.65
2023-03-17T06:38:36.803Z,22.08
2023-03-17T06:41:04.769Z,15.45
2023-03-17T06:43:34.053Z,19.73
2023-03-17T06:46:02.273Z,19.00
2023-03-17T06:48:30.208Z,20.67
2023-03-17T06:50:58.133Z,23.38
2023-03-17T06:53:26.154Z,23.50
2023-03-17T06:55:54.104Z,22.95
2023-03-17T06:58:21.993Z,19.55
2023-03-17T07:00:53.981Z,18.77
2023-03-17T07:03:22.497Z,19.17
2023-03-17T07:05:50.371Z,18.73
2023-03-17T07:08:18.389Z,18.02
2023-03-17T07:10:46.370Z,17.75
2023-03-17T07:13:14.678Z,17.63
2023-03-17T07:15:42.958Z,18.52
2023-03-17T07:18:12.445Z,17.52
2023-03-17T07:20:40.945Z,19.10
2023-03-17T07:23:10.805Z,17.83
2023-03-17T07:25:39.225Z,18.05
2023-03-17T07:28:07.098Z,16.88
2023-03-17T07:30:35.010Z,17.38
2023-03-17T07:33:04.057Z,17.65
2023-03-17T07:35:34.646Z,16.35
2023-03-17T07:38:02.984Z,15.88
2023-03-17T07:40:34.184Z,15.85
2023-03-17T07:43:04.557Z,16.35
2023-03-17T07:45:33.444Z,15.98
2023-03-17T07:48:01.837Z,16.20
2023-03-17T07:50:29.836Z,15.95
2023-03-17T07:52:59.078Z,15.73
2023-03-17T07:55:27.344Z,16.20
2023-03-17T07:57:55.281Z,16.15
2023-03-17T08:00:23.591Z,15.15
2023-03-17T08:03:06.915Z,15.05
2023-03-17T08:05:37.110Z,15.68
2023-03-17T08:08:06.958Z,15.75
2023-03-17T08:10:35.387Z,14.80
2023-03-17T08:13:03.862Z,14.20
2023-03-17T08:15:32.261Z,14.50
2023-03-17T08:18:01.017Z,14.82
2023-03-17T08:20:29.871Z,14.68
2023-03-17T08:22:58.040Z,13.82
2023-03-17T08:25:27.354Z,14.65
2023-03-17T08:27:55.880Z,14.52
2023-03-17T08:30:23.819Z,14.07
2023-03-17T08:32:52.325Z,14.07
2023-03-17T08:35:20.848Z,13.73
2023-03-17T08:37:48.855Z,12.82
2023-03-17T08:40:17.986Z,13.63
2023-03-17T08:42:48.141Z,13.45
2023-03-17T08:45:16.798Z,13.57
2023-03-17T08:47:44.759Z,12.55
2023-03-17T08:50:16.702Z,12.93
2023-03-17T08:52:44.971Z,12.90
2023-03-17T08:55:13.056Z,13.88
2023-03-17T08:57:40.999Z,14.88
2023-03-17T09:00:11.923Z,16.75
2023-03-17T09:02:39.917Z,17.05
2023-03-17T09:05:08.171Z,16.83
2023-03-17T09:07:36.539Z,17.42
2023-03-17T09:10:05.537Z,19.05
2023-03-17T09:12:34.315Z,18.25
2023-03-17T09:15:02.852Z,18.20
2023-03-17T09:17:32.085Z,17.65
2023-03-17T09:20:00.444Z,17.17
2023-03-17T09:22:28.397Z,17.17
2023-03-17T09:24:56.311Z,16.92
2023-03-17T09:27:24.284Z,17.27
2023-03-17T09:29:52.185Z,17.05
2023-03-17T09:32:20.080Z,16.52
2023-03-17T09:34:51.481Z,16.20
2023-03-17T09:37:19.552Z,16.10
2023-03-17T09:39:47.471Z,16.08
2023-03-17T09:42:21.357Z,15.88
2023-03-17T09:45:03.250Z,15.27
2023-03-17T09:47:55.954Z,14.27
2023-03-17T09:50:30.603Z,15.15
2023-03-17T09:52:58.712Z,14.68
2023-03-17T09:55:28.629Z,14.60
2023-03-17T09:57:56.962Z,14.45
2023-03-17T10:00:29.104Z,14.40
2023-03-17T10:02:57.866Z,13.57
2023-03-17T10:05:26.855Z,13.82
2023-03-17T10:08:04.318Z,13.50
2023-03-17T10:10:36.622Z,13.25
2023-03-17T10:13:08.444Z,12.95
2023-03-17T10:15:38.388Z,13.18
2023-03-17T10:18:10.872Z,13.10
2023-03-17T10:20:39.931Z,12.65
2023-03-17T10:23:09.370Z,11.73
2023-03-17T10:25:37.496Z,12.32
2023-03-17T10:28:09.176Z,12.23
2023-03-17T10:30:37.297Z,11.80
2023-03-17T10:33:07.194Z,11.90
2023-03-17T10:35:36.512Z,10.98
2023-03-17T10:38:15.848Z,11.25
2023-03-17T10:40:47.751Z,10.98
2023-03-17T10:43:18.965Z,11.68
2023-03-17T10:45:48.697Z,10.35
2023-03-17T10:48:18.883Z,10.88
2023-03-17T10:50:49.294Z,10.85
2023-03-17T10:53:28.058Z,10.63
2023-03-17T10:55:58.710Z,10.43
2023-03-17T10:58:37.345Z,10.43
2023-03-17T11:01:07.720Z,10.32
2023-03-17T11:03:38.746Z,10.25
2023-03-17T11:06:08.521Z,9.80
2023-03-17T11:08:39.723Z,9.90
2023-03-17T11:11:10.186Z,9.70
2023-03-17T11:13:38.253Z,9.63
2023-03-17T11:16:10.617Z,9.23
2023-03-17T11:18:39.100Z,9.52
2023-03-17T11:21:08.141Z,9.43
2023-03-17T11:24:02.211Z,9.30
2023-03-17T11:26:49.762Z,9.38
2023-03-17T11:29:23.726Z,8.63
2023-03-17T11:31:57.349Z,8.50
2023-03-17T11:34:31.188Z,8.98
2023-03-17T11:37:02.363Z,8.90
2023-03-17T11:39:33.989Z,8.40
2023-03-17T11:42:07.303Z,8.35
2023-03-17T11:45:02.608Z,8.38
2023-03-17T11:47:42.864Z,8.23
2023-03-17T11:50:18.006Z,7.70
2023-03-17T11:52:53.202Z,7.93
2023-03-17T11:55:23.523Z,8.20
2023-03-17T11:57:54.764Z,7.68
2023-03-17T12:00:26.435Z,8.15
2023-03-17T12:02:56.297Z,7.57
2023-03-17T12:05:25.228Z,7.50
2023-03-17T12:07:54.921Z,7.57
2023-03-17T12:10:25.622Z,7.38
2023-03-17T12:12:55.917Z,6.82
2023-03-17T12:15:29.339Z,7.93
2023-03-17T12:17:58.698Z,7.20
2023-03-17T12:20:30.919Z,7.35
2023-03-17T12:23:00.270Z,7.10
2023-03-17T12:25:32.688Z,6.95
2023-03-17T12:28:02.414Z,7.22
2023-03-17T12:30:33.118Z,6.45
2023-03-17T12:33:07.894Z,6.70
2023-03-17T12:35:37.603Z,6.70
2023-03-17T12:38:08.984Z,6.72
2023-03-17T12:40:41.802Z,6.53
2023-03-17T12:43:54.006Z,6.82
2023-03-17T12:46:41.876Z,7.07
2023-03-17T12:49:33.716Z,6.47
2023-03-17T12:52:17.879Z,6.38
2023-03-17T12:54:46.624Z,6.30
2023-03-17T12:57:18.496Z,6.47
2023-03-17T12:59:47.780Z,6.57
2023-03-17T13:02:18.399Z,6.32
2023-03-17T13:04:53.592Z,6.57
2023-03-17T13:07:23.295Z,5.82
2023-03-17T13:09:53.103Z,5.95
2023-03-17T13:13:03.666Z,6.07
2023-03-17T13:15:54.574Z,6.32
2023-03-17T13:18:53.933Z,5.95
2023-03-17T13:21:26.369Z,5.93
2023-03-17T13:23:59.115Z,5.80
2023-03-17T13:26:56.540Z,5.80
2023-03-17T13:29:26.218Z,5.55
2023-03-17T13:32:10.457Z,5.80
2023-03-17T13:34:46.225Z,5.50
2023-03-17T13:37:18.893Z,4.70
2023-03-17T13:40:10.243Z,5.13
2023-03-17T13:42:50.826Z,5.80
2023-03-17T13:45:24.662Z,4.93
2023-03-17T13:47:55.532Z,4.90
2023-03-17T13:50:24.437Z,4.80
2023-03-17T13:52:56.119Z,5.28
2023-03-17T13:55:38.188Z,5.32
2023-03-17T13:58:24.943Z,4.70
2023-03-17T14:00:58.772Z,4.47
2023-03-17T14:03:32.186Z,4.85
2023-03-17T14:06:00.143Z,4.75
2023-03-17T14:08:30.824Z,4.20
2023-03-17T14:11:00.685Z,4.40
2023-03-17T14:13:31.733Z,5.00
2023-03-17T14:16:03.785Z,4.45
2023-03-17T14:18:34.040Z,4.60
2023-03-17T14:21:08.458Z,4.40
2023-03-17T14:23:37.823Z,4.40
2023-03-17T14:26:07.705Z,4.28
2023-03-17T14:28:35.948Z,4.45
2023-03-17T14:31:04.808Z,4.50
2023-03-17T14:33:34.844Z,4.53
2023-03-17T14:36:04.273Z,4.20
2023-03-17T14:38:33.209Z,4.15
2023-03-17T14:41:01.771Z,4.25
2023-03-17T14:43:29.779Z,4.50
2023-03-17T14:46:01.444Z,4.30
2023-03-17T14:48:31.825Z,4.40
2023-03-17T14:51:05.612Z,4.50
2023-03-17T14:53:34.231Z,4.63
2023-03-17T14:56:03.188Z,4.20
2023-03-17T14:58:32.456Z,4.50
2023-03-17T15:01:04.102Z,4.30
2023-03-17T15:03:34.240Z,4.57
2023-03-17T15:06:09.119Z,3.92
2023-03-17T15:08:45.916Z,3.92
2023-03-17T15:11:19.362Z,4.07
2023-03-17T15:13:47.287Z,3.70
2023-03-17T15:16:21.971Z,4.00
2023-03-17T15:18:51.326Z,3.67
2023-03-17T15:21:25.399Z,3.97
2023-03-17T15:23:53.659Z,4.10
2023-03-17T15:26:23.225Z,3.90
2023-03-17T15:28:51.125Z,4.00
2023-03-17T15:31:23.377Z,3.97
2023-03-17T15:33:52.777Z,4.10
2023-03-17T15:36:31.947Z,3.88
2023-03-17T15:39:01.849Z,4.53
2023-03-17T15:41:29.758Z,4.10
2023-03-17T15:43:57.755Z,4.70
2023-03-17T15:46:27.433Z,4.32
2023-03-17T15:48:55.652Z,4.38
2023-03-17T15:51:23.548Z,4.53
2023-03-17T15:53:51.638Z,4.28
2023-03-17T15:56:21.621Z,4.38
2023-03-17T15:58:52.479Z,3.85
2023-03-17T16:01:20.751Z,4.10
2023-03-17T16:03:48.759Z,4.20
2023-03-17T16:06:18.111Z,3.92
2023-03-17T16:08:46.425Z,4.22
2023-03-17T16:11:16.538Z,4.20
2023-03-17T16:13:46.156Z,4.20
2023-03-17T16:16:21.402Z,3.95
2023-03-17T16:18:50.323Z,3.63
2023-03-17T16:21:19.155Z,4.10
2023-03-17T16:23:47.111Z,3.88
2023-03-17T16:26:16.932Z,3.83
2023-03-17T16:28:47.608Z,3.80
2023-03-17T16:31:19.126Z,3.60
2023-03-17T16:33:47.320Z,3.63
2023-03-17T16:36:16.445Z,3.38
2023-03-17T16:38:44.572Z,3.70
2023-03-17T16:41:20.458Z,4.03
2023-03-17T16:43:55.268Z,3.70
2023-03-17T16:46:23.413Z,4.38
2023-03-17T16:48:51.613Z,3.70
2023-03-17T16:51:19.552Z,4.10
2023-03-17T16:53:47.566Z,4.07
2023-03-17T16:56:17.683Z,3.90
2023-03-17T16:58:45.940Z,3.80
2023-03-17T17:01:16.854Z,4.03
2023-03-17T17:03:44.980Z,3.55
2023-03-17T17:06:14.279Z,3.58
2023-03-17T17:08:43.248Z,3.80
2023-03-17T17:11:12.931Z,3.95
2023-03-17T17:13:41.352Z,3.95
2023-03-17T17:16:12.966Z,3.85
2023-03-17T17:18:42.212Z,4.03
2023-03-17T17:21:10.098Z,3.90
2023-03-17T17:23:37.972Z,3.55
2023-03-17T17:26:06.161Z,3.38
2023-03-17T17:28:34.095Z,3.40
2023-03-17T17:31:02.020Z,3.60
2023-03-17T17:33:29.951Z,3.58
2023-03-17T17:35:59.221Z,3.47
2023-03-17T17:38:27.941Z,3.58
2023-03-17T17:40:56.365Z,3.60
2023-03-17T17:43:24.976Z,3.17
2023-03-17T17:45:53.032Z,3.28
2023-03-17T17:48:22.518Z,3.33
2023-03-17T17:50:50.569Z,3.85
2023-03-17T17:53:19.924Z,3.60
2023-03-17T17:55:48.624Z,3.40
2023-03-17T17:58:17.020Z,3.35
2023-03-17T18:00:45.127Z,3.50
2023-03-17T18:03:13.107Z,3.80
2023-03-17T18:05:41.053Z,4.30
2023-03-17T18:08:08.983Z,3.47
2023-03-17T18:10:38.307Z,3.70
2023-03-17T18:13:06.240Z,3.35
2023-03-17T18:15:34.136Z,3.50
2023-03-17T18:18:02.064Z,3.42
2023-03-17T18:20:30.961Z,3.47
2023-03-17T18:22:59.093Z,3.45
2023-03-17T18:25:27.469Z,3.47
2023-03-17T18:27:56.838Z,3.70
2023-03-17T18:30:26.329Z,3.53
2023-03-17T18:32:55.161Z,3.28
2023-03-17T18:35:24.186Z,3.30
2023-03-17T18:37:52.130Z,3.63
2023-03-17T18:40:20.595Z,3.05
2023-03-17T18:42:48.496Z,3.38
2023-03-17T18:45:17.964Z,3.40
2023-03-17T18:47:45.954Z,3.38
2023-03-17T18:50:14.874Z,3.88
2023-03-17T18:52:43.626Z,3.40
2023-03-17T18:55:12.562Z,3.40
2023-03-17T18:57:42.550Z,3.45
2023-03-17T19:00:13.295Z,3.65
2023-03-17T19:02:42.516Z,3.40
2023-03-17T19:05:11.542Z,3.13
2023-03-17T19:07:40.617Z,3.40
2023-03-17T19:10:09.896Z,3.17
2023-03-17T19:12:38.153Z,3.22
2023-03-17T19:15:07.249Z,3.25
2023-03-17T19:17:35.194Z,3.05
2023-03-17T19:20:04.967Z,3.35
2023-03-17T19:22:32.876Z,3.42
2023-03-17T19:25:01.270Z,3.65
2023-03-17T19:27:29.257Z,3.40
2023-03-17T19:29:57.183Z,3.55
2023-03-17T19:32:25.135Z,3.25
2023-03-17T19:34:53.459Z,3.40
2023-03-17T19:37:22.766Z,3.42
2023-03-17T19:39:50.689Z,3.60
2023-03-17T19:42:18.603Z,3.47
2023-03-17T19:44:46.511Z,3.63
2023-03-17T19:47:14.425Z,3.33
2023-03-17T19:49:42.341Z,3.22
2023-03-17T19:52:10.582Z,3.67
2023-03-17T19:54:43.661Z,3.35
2023-03-17T19:57:12.087Z,3.40
2023-03-17T19:59:40.397Z,3.35
2023-03-17T20:02:08.401Z,3.40
2023-03-17T20:04:37.250Z,3.65
2023-03-17T20:07:05.504Z,3.30
2023-03-17T20:09:33.487Z,3.13
2023-03-17T20:12:02.928Z,3.25
2023-03-17T20:14:30.837Z,3.15
2023-03-17T20:16:58.732Z,3.65
2023-03-17T20:19:26.703Z,3.35
2023-03-17T20:21:54.644Z,3.30
2023-03-17T20:24:22.871Z,3.38
2023-03-17T20:26:51.640Z,3.70
2023-03-17T20:29:21.306Z,3.45
2023-03-17T20:31:49.258Z,3.40
2023-03-17T20:34:17.462Z,3.13
2023-03-17T20:36:46.024Z,3.40
2023-03-17T20:39:19.598Z,3.53
2023-03-17T20:41:48.150Z,3.20
2023-03-17T20:44:16.091Z,3.47
2023-03-17T20:46:45.777Z,3.30
2023-03-17T20:49:14.043Z,3.53
2023-03-17T20:51:41.999Z,3.53
2023-03-17T20:54:10.784Z,3.50
2023-03-17T20:56:39.653Z,3.53
2023-03-17T20:59:09.579Z,3.38
2023-03-17T21:01:38.795Z,3.70
2023-03-17T21:04:09.234Z,3.45
2023-03-17T21:06:37.280Z,3.45
2023-03-17T21:09:05.920Z,3.60
2023-03-17T21:11:33.817Z,3.50
2023-03-17T21:14:03.335Z,3.78
2023-03-17T21:16:31.381Z,3.50
2023-03-17T21:18:59.999Z,3.70
2023-03-17T21:21:29.432Z,3.75
2023-03-17T21:23:58.138Z,3.90
2023-03-17T21:26:26.324Z,3.63
2023-03-17T21:28:56.807Z,3.47
2023-03-17T21:31:24.874Z,3.70
2023-03-17T21:33:52.843Z,3.58
2023-03-17T21:36:21.225Z,3.65
2023-03-17T21:38:50.523Z,3.40
2023-03-17T21:41:22.856Z,4.05
2023-03-17T21:43:50.857Z,3.90
2023-03-17T21:46:18.763Z,3.70
2023-03-17T21:48:46.674Z,3.78
2023-03-17T21:51:14.578Z,3.60
2023-03-17T21:53:42.575Z,3.75
2023-03-17T21:56:12.619Z,3.67
2023-03-17T21:58:40.638Z,3.88
2023-03-17T22:01:09.145Z,3.70
2023-03-17T22:03:39.536Z,3.83
2023-03-17T22:06:08.403Z,3.85
2023-03-17T22:08:36.360Z,3.80
2023-03-17T22:11:07.834Z,4.53
2023-03-17T22:13:37.342Z,4.13
2023-03-17T22:16:05.749Z,3.55
2023-03-17T22:18:33.823Z,4.40
2023-03-17T22:21:01.807Z,4.60
2023-03-17T22:23:30.405Z,4.00
2023-03-17T22:25:58.466Z,3.88
2023-03-17T22:28:26.446Z,4.03
2023-03-17T22:30:56.064Z,4.13
2023-03-17T22:33:23.966Z,3.70
2023-03-17T22:35:51.936Z,4.50
2023-03-17T22:38:19.862Z,4.55
2023-03-17T22:40:47.764Z,3.75
2023-03-17T22:43:15.840Z,4.18
2023-03-17T22:45:43.753Z,4.20
2023-03-17T22:48:13.170Z,4.65
2023-03-17T22:50:43.215Z,3.72
2023-03-17T22:53:11.196Z,4.35
2023-03-17T22:55:39.123Z,4.00
2023-03-17T22:58:06.965Z,4.13
2023-03-17T23:00:36.118Z,4.10
2023-03-17T23:03:04.120Z,3.80
2023-03-17T23:05:33.361Z,3.97
2023-03-17T23:08:01.311Z,3.90
2023-03-17T23:10:29.237Z,3.58
2023-03-17T23:12:57.182Z,3.88
2023-03-17T23:15:25.320Z,4.22
2023-03-17T23:17:53.795Z,4.13
2023-03-17T23:20:21.773Z,3.85
2023-03-17T23:22:51.366Z,3.75
2023-03-17T23:25:19.585Z,4.10
2023-03-17T23:27:47.999Z,3.80
2023-03-17T23:30:17.773Z,4.05
2023-03-17T23:32:45.819Z,4.10
2023-03-17T23:35:14.150Z,3.75
2023-03-17T23:37:42.277Z,3.70
2023-03-17T23:40:15.446Z,4.03
2023-03-17T23:42:43.331Z,3.92
2023-03-17T23:45:11.975Z,3.88
2023-03-17T23:47:39.878Z,3.78
2023-03-17T23:50:08.835Z,3.92
2023-03-17T23:52:37.063Z,3.72
2023-03-17T23:55:05.899Z,3.97
2023-03-17T23:57:36.675Z,4.10
